Time;durP1;ratioP1;P1;durP2;ratioP2;P2;SDS_P1;SDS_P2;PMS_P1;PMS_P2;Temp;Humidity;BMP_temperature;BMP_pressure;BME280_temperature;BME280_humidity;BME280_pressure;Samples;Min_cycle;Max_cycle;Signal;HPM_P1;HPM_P2
2023/04/15 00:00:25;;;;;;;3.00;2.70;;;5.30;99.90;;;;;;5082293;28;20176;-83
2023/04/15 00:02:51;;;;;;;3.37;2.53;;;5.30;99.90;;;;;;5082196;28;20216;-83
2023/04/15 00:05:17;;;;;;;3.70;3.10;;;5.30;99.90;;;;;;5073772;28;20180;-83
2023/04/15 00:07:43;;;;;;;4.57;2.90;;;5.20;99.90;;;;;;5085656;28;20190;-83
2023/04/15 00:10:09;;;;;;;4.37;2.67;;;5.20;99.90;;;;;;5094201;28;20172;-83
2023/04/15 00:12:35;;;;;;;2.90;2.50;;;5.20;99.90;;;;;;5092897;28;20185;-84
2023/04/15 00:15:01;;;;;;;4.03;2.63;;;5.20;99.90;;;;;;5084967;28;20175;-83
2023/04/15 00:17:26;;;;;;;4.13;2.57;;;5.20;99.90;;;;;;5075723;28;20200;-83
2023/04/15 00:19:52;;;;;;;4.03;2.17;;;5.10;99.90;;;;;;5078215;28;20539;-85
2023/04/15 00:22:17;;;;;;;2.47;2.27;;;5.10;99.90;;;;;;5073646;28;20205;-83
2023/04/15 00:24:43;;;;;;;2.60;2.40;;;5.00;99.90;;;;;;5072513;28;20176;-83
2023/04/15 00:27:09;;;;;;;2.90;2.60;;;4.90;99.90;;;;;;5073637;28;20207;-83
2023/04/15 00:29:34;;;;;;;4.57;2.50;;;4.90;99.90;;;;;;5073585;28;20250;-83
2023/04/15 00:32:00;;;;;;;3.20;2.30;;;4.90;99.90;;;;;;5073477;28;20193;-83
2023/04/15 00:34:26;;;;;;;4.07;2.40;;;4.90;99.90;;;;;;5072271;28;20273;-83
2023/04/15 00:36:52;;;;;;;3.80;2.87;;;4.90;99.90;;;;;;5073231;28;20207;-83
2023/04/15 00:39:18;;;;;;;3.63;2.47;;;4.90;99.90;;;;;;5071765;28;20172;-83
2023/04/15 00:41:46;;;;;;;3.50;2.63;;;4.90;99.90;;;;;;5072009;28;20202;-83
2023/04/15 00:44:11;;;;;;;4.63;2.73;;;4.90;99.90;;;;;;5071833;28;20211;-83
2023/04/15 00:46:40;;;;;;;2.97;2.67;;;4.90;99.90;;;;;;5071899;28;20190;-84
2023/04/15 00:49:06;;;;;;;3.70;2.57;;;4.90;99.90;;;;;;5071901;28;20291;-83
2023/04/15 00:51:35;;;;;;;3.07;2.63;;;5.00;99.90;;;;;;5072871;28;20308;-83
2023/04/15 00:54:04;;;;;;;3.30;2.60;;;5.00;99.90;;;;;;5072950;28;20190;-83
2023/04/15 00:56:33;;;;;;;3.23;2.47;;;5.00;99.90;;;;;;5071828;28;20181;-82
2023/04/15 00:58:59;;;;;;;4.17;2.70;;;4.90;99.90;;;;;;5071811;28;20175;-83
2023/04/15 01:01:25;;;;;;;3.43;2.50;;;4.90;99.90;;;;;;5072612;28;20174;-83
2023/04/15 01:03:51;;;;;;;2.70;2.50;;;4.90;99.90;;;;;;5071520;28;20211;-83
2023/04/15 01:06:17;;;;;;;4.13;2.73;;;4.80;99.90;;;;;;5072812;28;20171;-83
2023/04/15 01:08:44;;;;;;;2.90;2.57;;;4.80;99.90;;;;;;5071351;28;20176;-83
2023/04/15 01:11:11;;;;;;;3.10;2.67;;;4.80;99.90;;;;;;5072658;28;20171;-83
2023/04/15 01:13:37;;;;;;;3.70;2.80;;;4.80;99.90;;;;;;5071410;28;20179;-83
2023/04/15 01:16:03;;;;;;;5.10;2.73;;;4.80;99.90;;;;;;5071339;28;20177;-83
2023/04/15 01:18:29;;;;;;;5.20;3.10;;;4.70;99.90;;;;;;5071208;28;20196;-83
2023/04/15 01:20:55;;;;;;;4.00;2.90;;;4.80;99.90;;;;;;5071014;28;20182;-83
2023/04/15 01:23:22;;;;;;;3.30;2.80;;;4.80;99.90;;;;;;5071125;28;20198;-83
2023/04/15 01:25:48;;;;;;;3.37;2.60;;;4.90;99.90;;;;;;5071823;28;20187;-83
2023/04/15 01:28:14;;;;;;;3.27;2.80;;;5.00;99.90;;;;;;5071019;28;20195;-83
2023/04/15 01:30:40;;;;;;;4.17;2.80;;;4.90;99.90;;;;;;5072261;28;20181;-83
2023/04/15 01:33:06;;;;;;;3.17;2.87;;;5.00;99.90;;;;;;5071001;28;20183;-83
2023/04/15 01:35:32;;;;;;;4.23;3.00;;;5.00;99.90;;;;;;5072295;28;20200;-83
2023/04/15 01:38:05;;;;;;;4.10;3.13;;;5.00;99.90;;;;;;5070734;28;20207;-83
2023/04/15 01:40:31;;;;;;;4.93;2.90;;;5.00;99.90;;;;;;5071076;28;20245;-83
2023/04/15 01:42:56;;;;;;;3.53;2.60;;;5.00;99.90;;;;;;5070836;28;20229;-83
2023/04/15 01:45:22;;;;;;;4.30;3.17;;;4.80;99.90;;;;;;5070978;28;20163;-83
2023/04/15 01:47:48;;;;;;;4.53;3.20;;;4.90;99.90;;;;;;5072177;28;20221;-83
2023/04/15 01:50:14;;;;;;;8.00;3.23;;;4.90;99.90;;;;;;5071881;28;20170;-83
2023/04/15 01:52:40;;;;;;;4.07;3.00;;;4.90;99.90;;;;;;5072214;28;20179;-83
2023/04/15 01:55:07;;;;;;;3.17;2.60;;;4.90;99.90;;;;;;5072104;28;20715;-83
2023/04/15 01:57:33;;;;;;;4.87;2.90;;;5.00;99.90;;;;;;5070835;28;20189;-83
2023/04/15 01:59:58;;;;;;;3.40;2.83;;;4.90;99.90;;;;;;5072015;28;20185;-83
2023/04/15 02:02:24;;;;;;;3.30;3.00;;;4.90;99.90;;;;;;5071964;28;20291;-83
2023/04/15 02:04:50;;;;;;;4.77;2.90;;;4.90;99.90;;;;;;5072025;28;20182;-83
2023/04/15 02:07:16;;;;;;;3.77;2.70;;;4.90;99.90;;;;;;5072017;28;20267;-83
2023/04/15 02:09:42;;;;;;;3.47;2.90;;;4.80;99.90;;;;;;5071920;28;20718;-83
2023/04/15 02:12:08;;;;;;;3.30;2.97;;;4.80;99.90;;;;;;5070830;28;20165;-83
2023/04/15 02:14:33;;;;;;;3.90;3.40;;;4.80;99.90;;;;;;5087656;28;20178;-83
2023/04/15 02:17:06;;;;;;;3.60;3.10;;;4.80;99.90;;;;;;5071671;28;20192;-83
2023/04/15 02:19:32;;;;;;;3.00;2.70;;;4.80;99.90;;;;;;5071698;28;20190;-83
2023/04/15 02:21:57;;;;;;;3.50;3.10;;;4.70;99.90;;;;;;5071635;28;20165;-83
2023/04/15 02:24:23;;;;;;;3.67;2.67;;;4.80;99.90;;;;;;5070725;28;20557;-83
2023/04/15 02:26:48;;;;;;;3.33;2.93;;;4.70;99.90;;;;;;5070582;28;20244;-83
2023/04/15 02:29:14;;;;;;;3.17;2.67;;;4.60;99.90;;;;;;5070456;28;20186;-83
2023/04/15 02:31:41;;;;;;;4.00;3.00;;;4.60;99.90;;;;;;5070354;28;20185;-83
2023/04/15 02:34:07;;;;;;;3.73;3.10;;;4.60;99.90;;;;;;5070545;28;20209;-83
2023/04/15 02:36:33;;;;;;;3.00;2.70;;;4.70;99.90;;;;;;5070456;28;20181;-83
2023/04/15 02:38:59;;;;;;;4.07;3.10;;;4.70;99.90;;;;;;5075185;28;20178;-83
2023/04/15 02:41:26;;;;;;;3.47;2.60;;;4.80;99.90;;;;;;5075517;28;20212;-83
2023/04/15 02:43:52;;;;;;;3.17;2.73;;;4.80;99.90;;;;;;5075584;28;20211;-83
2023/04/15 02:46:17;;;;;;;3.37;2.93;;;4.80;99.90;;;;;;5075385;28;20254;-83
2023/04/15 02:48:43;;;;;;;3.50;3.10;;;4.70;99.90;;;;;;5074235;28;20213;-83
2023/04/15 02:51:18;;;;;;;3.47;3.00;;;4.70;99.90;;;;;;5074099;28;20225;-83
2023/04/15 02:53:44;;;;;;;4.30;3.10;;;4.70;99.90;;;;;;5074219;28;20178;-83
2023/04/15 02:56:11;;;;;;;3.53;3.20;;;4.70;99.90;;;;;;5075298;28;20259;-83
2023/04/15 02:58:37;;;;;;;3.40;3.03;;;4.70;99.90;;;;;;5075174;28;20200;-83
2023/04/15 03:01:03;;;;;;;3.70;2.97;;;4.70;99.90;;;;;;5073751;28;20190;-83
2023/04/15 03:03:29;;;;;;;4.90;3.40;;;4.80;99.90;;;;;;5075113;28;20210;-83
2023/04/15 03:05:55;;;;;;;5.07;3.47;;;4.80;99.90;;;;;;5073901;28;20174;-83
2023/04/15 03:08:21;;;;;;;6.00;3.50;;;4.90;99.90;;;;;;5073722;28;20580;-83
2023/04/15 03:10:47;;;;;;;4.30;3.40;;;4.80;99.90;;;;;;5073610;28;20177;-83
2023/04/15 03:13:12;;;;;;;5.60;3.73;;;4.90;99.90;;;;;;5073692;28;20235;-83
2023/04/15 03:15:38;;;;;;;3.93;3.33;;;4.90;99.90;;;;;;5073592;28;20182;-83
2023/04/15 03:18:03;;;;;;;3.57;2.93;;;4.80;99.90;;;;;;5074864;28;20199;-83
2023/04/15 03:20:29;;;;;;;4.90;3.40;;;4.80;99.90;;;;;;5073318;28;20179;-83
2023/04/15 03:22:55;;;;;;;3.90;3.10;;;4.70;99.90;;;;;;5074623;28;20238;-83
2023/04/15 03:25:20;;;;;;;3.80;3.10;;;4.70;99.90;;;;;;5073443;28;20200;-83
2023/04/15 03:27:46;;;;;;;4.93;3.37;;;4.70;99.90;;;;;;5073362;28;20193;-83
2023/04/15 03:30:12;;;;;;;3.63;3.30;;;4.70;99.90;;;;;;5074369;28;20200;-83
2023/04/15 03:32:37;;;;;;;3.53;3.23;;;4.60;99.90;;;;;;5077985;28;20637;-83
2023/04/15 03:35:03;;;;;;;3.63;3.20;;;4.50;99.90;;;;;;5083112;28;20231;-83
2023/04/15 03:37:29;;;;;;;5.30;3.50;;;4.60;99.90;;;;;;5083749;28;20313;-83
2023/04/15 03:39:55;;;;;;;3.90;3.33;;;4.60;99.90;;;;;;5085534;28;20214;-83
2023/04/15 03:42:20;;;;;;;5.97;3.80;;;4.60;99.90;;;;;;5074535;28;20181;-83
2023/04/15 03:44:46;;;;;;;4.90;4.00;;;4.60;99.90;;;;;;5079740;28;20184;-83
2023/04/15 03:47:11;;;;;;;4.40;3.60;;;4.60;99.90;;;;;;5073042;28;20198;-83
2023/04/15 03:49:37;;;;;;;6.13;4.00;;;4.60;99.90;;;;;;5073081;28;20166;-82
2023/04/15 03:52:03;;;;;;;5.33;4.07;;;4.60;99.90;;;;;;5072931;28;20177;-83
2023/04/15 03:54:28;;;;;;;5.80;4.40;;;4.60;99.90;;;;;;5072886;28;20171;-83
2023/04/15 03:56:54;;;;;;;6.57;4.73;;;4.60;99.90;;;;;;5072728;28;20288;-83
2023/04/15 03:59:20;;;;;;;6.50;4.70;;;4.70;99.90;;;;;;5072727;28;20181;-83
2023/04/15 04:01:45;;;;;;;6.43;4.50;;;4.70;99.90;;;;;;5072773;28;20177;-83
2023/04/15 04:04:11;;;;;;;6.90;4.43;;;4.70;99.90;;;;;;5073911;28;20205;-83
2023/04/15 04:06:36;;;;;;;4.50;4.07;;;4.70;99.90;;;;;;5072596;28;20198;-83
2023/04/15 04:09:02;;;;;;;5.40;4.10;;;4.60;99.90;;;;;;5072636;28;20209;-83
2023/04/15 04:11:28;;;;;;;7.73;4.80;;;4.50;99.90;;;;;;5073722;28;20170;-83
2023/04/15 04:13:53;;;;;;;6.40;4.40;;;4.40;99.90;;;;;;5072492;28;20177;-83
2023/04/15 04:16:19;;;;;;;5.53;4.70;;;4.40;99.90;;;;;;5073838;28;20600;-83
2023/04/15 04:18:44;;;;;;;4.97;4.30;;;4.30;99.90;;;;;;5080630;28;20177;-83
2023/04/15 04:21:10;;;;;;;6.27;4.53;;;4.30;99.90;;;;;;5071982;28;20173;-83
2023/04/15 04:23:36;;;;;;;5.90;4.87;;;4.20;99.90;;;;;;5072249;28;20325;-83
2023/04/15 04:26:01;;;;;;;6.13;4.50;;;4.20;99.90;;;;;;5072491;28;20191;-83
2023/04/15 04:28:27;;;;;;;5.47;3.83;;;4.20;99.90;;;;;;5073499;28;20199;-83
2023/04/15 04:30:53;;;;;;;5.73;4.50;;;4.10;99.90;;;;;;5073391;28;20173;-83
2023/04/15 04:33:18;;;;;;;6.23;4.33;;;4.10;99.90;;;;;;5073446;28;20230;-82
2023/04/15 04:35:44;;;;;;;6.70;4.33;;;4.10;99.90;;;;;;5071987;28;20212;-85
2023/04/15 04:38:09;;;;;;;6.70;4.50;;;4.00;99.90;;;;;;5144233;22;20243;-82
2023/04/15 04:40:35;;;;;;;6.30;4.67;;;4.00;99.90;;;;;;5093438;28;20164;-82
2023/04/15 04:43:01;;;;;;;6.87;5.07;;;4.00;99.90;;;;;;5094345;28;20196;-84
2023/04/15 04:45:27;;;;;;;6.80;5.10;;;4.00;99.90;;;;;;5095429;28;20217;-83
2023/04/15 04:47:52;;;;;;;6.33;5.10;;;4.00;99.90;;;;;;5083689;28;20256;-83
2023/04/15 04:50:18;;;;;;;7.07;5.10;;;4.10;99.90;;;;;;5072745;28;20165;-82
2023/04/15 04:52:44;;;;;;;6.60;4.87;;;4.20;99.90;;;;;;5074090;28;20666;-83
2023/04/15 04:55:09;;;;;;;8.20;5.43;;;4.20;99.90;;;;;;5072850;28;20651;-86
2023/04/15 04:57:35;;;;;;;7.00;5.10;;;4.40;99.90;;;;;;5072560;28;20219;-82
2023/04/15 05:00:03;;;;;;;5.97;4.53;;;4.60;99.90;;;;;;5072385;28;20203;-82
2023/04/15 05:02:28;;;;;;;7.17;5.20;;;4.50;99.90;;;;;;5072253;28;20287;-82
2023/04/15 05:04:54;;;;;;;6.27;5.13;;;4.50;99.90;;;;;;5072510;28;20203;-82
2023/04/15 05:07:20;;;;;;;6.47;4.90;;;4.50;99.90;;;;;;5074275;28;20193;-83
2023/04/15 05:09:46;;;;;;;6.03;5.23;;;4.60;99.90;;;;;;5074475;28;20182;-82
2023/04/15 05:12:14;;;;;;;7.67;5.13;;;4.50;99.90;;;;;;5073737;28;20215;-82
2023/04/15 05:14:41;;;;;;;7.60;5.00;;;4.60;99.90;;;;;;5072825;28;20261;-84
2023/04/15 05:17:07;;;;;;;6.10;5.43;;;4.50;99.90;;;;;;5072445;28;20684;-83
2023/04/15 05:19:32;;;;;;;8.23;6.33;;;4.60;99.90;;;;;;5073396;28;20268;-82
2023/04/15 05:21:58;;;;;;;7.93;5.90;;;4.60;99.90;;;;;;5073829;28;20184;-84
2023/04/15 05:24:24;;;;;;;5.80;5.20;;;4.70;99.90;;;;;;5073257;28;20255;-83
2023/04/15 05:26:50;;;;;;;7.77;5.50;;;4.80;99.90;;;;;;5072716;28;20188;-83
2023/04/15 05:29:15;;;;;;;8.53;5.67;;;4.90;99.90;;;;;;5073876;28;20177;-82
2023/04/15 05:31:41;;;;;;;7.43;5.63;;;4.90;99.90;;;;;;5072845;28;20605;-83
2023/04/15 05:34:07;;;;;;;7.30;5.17;;;5.00;99.90;;;;;;5074070;28;20173;-83
2023/04/15 05:36:33;;;;;;;6.77;5.33;;;5.00;99.90;;;;;;5077289;28;20265;-83
2023/04/15 05:38:58;;;;;;;6.50;5.07;;;5.10;99.90;;;;;;5073453;28;20248;-83
2023/04/15 05:41:24;;;;;;;7.47;5.30;;;5.10;99.90;;;;;;5073519;28;20552;-83
2023/04/15 05:43:50;;;;;;;7.07;5.13;;;5.10;99.90;;;;;;5074618;28;20213;-83
2023/04/15 05:46:15;;;;;;;6.87;4.70;;;5.10;99.90;;;;;;5075196;28;20653;-81
2023/04/15 05:48:41;;;;;;;6.17;4.10;;;5.20;99.90;;;;;;5077902;28;20205;-81
2023/04/15 05:51:07;;;;;;;5.83;4.57;;;5.50;99.90;;;;;;5075423;28;20173;-79
2023/04/15 05:53:32;;;;;;;6.67;5.33;;;6.10;99.90;;;;;;5072557;28;20552;-78
2023/04/15 05:55:58;;;;;;;6.47;4.37;;;6.00;99.90;;;;;;5074419;28;20178;-80
2023/04/15 05:58:23;;;;;;;8.10;4.90;;;6.30;99.90;;;;;;5073423;28;20201;-81
2023/04/15 06:00:49;;;;;;;6.43;4.63;;;6.60;99.90;;;;;;5073470;28;20195;-80
2023/04/15 06:03:15;;;;;;;4.17;3.77;;;6.80;99.90;;;;;;5073032;28;20298;-79
2023/04/15 06:05:41;;;;;;;6.93;5.13;;;6.90;99.90;;;;;;5074227;28;20196;-80
2023/04/15 06:08:07;;;;;;;5.00;4.50;;;7.10;99.90;;;;;;5068696;28;20189;-81
2023/04/15 06:10:35;;;;;;;6.83;5.03;;;6.80;99.90;;;;;;5053065;28;20165;-83
2023/04/15 06:13:02;;;;;;;6.50;5.33;;;6.60;99.90;;;;;;5056582;28;20173;-82
2023/04/15 06:15:28;;;;;;;6.47;5.13;;;6.20;99.90;;;;;;5058603;28;20180;-82
2023/04/15 06:17:54;;;;;;;8.27;6.83;;;6.00;99.90;;;;;;5059986;28;20196;-82
2023/04/15 06:20:19;;;;;;;10.07;7.87;;;5.90;99.90;;;;;;5059436;28;20179;-78
2023/04/15 06:22:45;;;;;;;10.57;7.73;;;5.80;99.90;;;;;;5064733;28;20206;-82
2023/04/15 06:25:11;;;;;;;8.77;6.80;;;5.80;99.90;;;;;;5067611;28;20655;-82
2023/04/15 06:27:36;;;;;;;7.30;5.43;;;5.60;99.90;;;;;;5065813;28;20204;-81
2023/04/15 06:30:03;;;;;;;9.50;6.63;;;5.60;99.90;;;;;;5067797;28;20198;-81
2023/04/15 06:32:28;;;;;;;7.80;5.80;;;5.70;99.90;;;;;;5066962;28;20177;-81
2023/04/15 06:34:54;;;;;;;8.27;5.83;;;5.70;99.90;;;;;;5068508;28;20184;-81
2023/04/15 06:37:19;;;;;;;8.27;6.30;;;5.80;99.90;;;;;;5074371;28;20207;-82
2023/04/15 06:39:46;;;;;;;7.90;5.80;;;5.80;99.90;;;;;;5087909;28;20245;-80
2023/04/15 06:42:11;;;;;;;7.57;5.47;;;5.90;99.90;;;;;;5077532;28;20737;-82
2023/04/15 06:44:37;;;;;;;7.33;6.00;;;6.00;99.90;;;;;;5059632;28;20208;-81
2023/04/15 06:47:03;;;;;;;7.93;5.80;;;6.20;99.90;;;;;;5078128;28;20201;-81
2023/04/15 06:49:28;;;;;;;7.00;5.63;;;6.20;99.90;;;;;;5059434;28;20171;-81
2023/04/15 06:51:54;;;;;;;7.00;5.83;;;6.20;99.90;;;;;;5077385;28;20637;-81
2023/04/15 06:54:20;;;;;;;7.70;5.80;;;6.20;99.90;;;;;;5059065;28;20177;-80
2023/04/15 06:56:46;;;;;;;8.13;6.63;;;6.10;99.90;;;;;;5059041;28;20186;-80
2023/04/15 06:59:13;;;;;;;9.13;6.23;;;6.30;99.90;;;;;;5076828;28;20181;-81
2023/04/15 07:01:40;;;;;;;8.43;6.33;;;6.30;99.90;;;;;;5076774;28;20180;-81
2023/04/15 07:04:05;;;;;;;8.33;6.03;;;6.40;99.90;;;;;;5058839;28;20213;-81
2023/04/15 07:06:31;;;;;;;7.57;6.33;;;6.40;99.90;;;;;;5059227;28;20252;-81
2023/04/15 07:08:57;;;;;;;8.27;6.60;;;6.50;99.90;;;;;;5062319;28;20582;-82
2023/04/15 07:11:24;;;;;;;8.87;6.47;;;6.50;99.90;;;;;;5078950;28;20205;-82
2023/04/15 07:13:50;;;;;;;8.33;7.33;;;6.60;99.90;;;;;;5059830;28;20213;-81
2023/04/15 07:16:16;;;;;;;8.80;6.63;;;6.70;99.90;;;;;;5070179;28;20205;-82
2023/04/15 07:18:42;;;;;;;9.73;7.43;;;6.90;99.90;;;;;;5079208;28;20193;-81
2023/04/15 07:21:08;;;;;;;8.80;6.77;;;6.90;99.90;;;;;;5091546;28;20187;-81
2023/04/15 07:23:33;;;;;;;10.67;8.10;;;6.90;99.90;;;;;;5078471;28;20195;-81
2023/04/15 07:26:00;;;;;;;8.70;7.57;;;6.90;99.90;;;;;;5078975;28;20579;-81
2023/04/15 07:28:26;;;;;;;10.47;7.80;;;7.00;99.90;;;;;;5078750;28;20192;-81
2023/04/15 07:30:51;;;;;;;9.77;7.97;;;6.90;99.90;;;;;;5078446;28;20178;-81
2023/04/15 07:33:17;;;;;;;10.57;8.20;;;7.00;99.90;;;;;;5079063;28;20194;-81
2023/04/15 07:35:42;;;;;;;20.27;12.47;;;7.00;99.90;;;;;;5097489;28;20171;-81
2023/04/15 07:38:08;;;;;;;12.23;8.63;;;7.10;99.90;;;;;;5097082;28;20217;-82
2023/04/15 07:40:33;;;;;;;10.03;7.83;;;7.10;99.90;;;;;;5078538;28;20175;-83
2023/04/15 07:42:59;;;;;;;9.60;7.87;;;7.10;99.90;;;;;;5087669;28;20214;-82
2023/04/15 07:45:25;;;;;;;11.50;8.37;;;7.10;99.90;;;;;;5088650;28;20171;-81
2023/04/15 07:47:50;;;;;;;10.47;7.83;;;7.10;99.90;;;;;;5089960;28;20206;-82
2023/04/15 07:50:17;;;;;;;9.97;8.10;;;7.20;99.90;;;;;;5094945;28;20183;-82
2023/04/15 07:52:43;;;;;;;11.37;8.50;;;7.20;99.90;;;;;;5078893;28;20691;-81
2023/04/15 07:55:09;;;;;;;10.23;7.80;;;7.20;99.90;;;;;;5098062;28;20172;-81
2023/04/15 07:57:36;;;;;;;11.23;8.40;;;7.20;99.90;;;;;;5098357;28;20612;-82
2023/04/15 08:00:04;;;;;;;12.03;8.57;;;7.30;99.90;;;;;;5066030;28;20271;-82
2023/04/15 08:02:30;;;;;;;10.87;8.43;;;7.30;99.90;;;;;;5087616;28;20195;-82
2023/04/15 08:04:56;;;;;;;12.27;8.73;;;7.30;99.90;;;;;;5097295;28;20171;-81
2023/04/15 08:07:22;;;;;;;10.87;8.13;;;7.40;99.90;;;;;;5098206;28;20188;-82
2023/04/15 08:09:48;;;;;;;10.87;8.87;;;7.40;99.90;;;;;;5079258;28;20281;-82
2023/04/15 08:12:13;;;;;;;10.67;8.33;;;7.30;99.90;;;;;;5079701;28;20183;-82
2023/04/15 08:14:39;;;;;;;11.97;9.30;;;7.40;99.90;;;;;;5079400;28;20179;-82
2023/04/15 08:17:05;;;;;;;10.97;8.90;;;7.30;99.90;;;;;;5098922;28;20185;-83
2023/04/15 08:19:31;;;;;;;11.40;8.73;;;7.30;99.90;;;;;;5098059;28;20187;-82
2023/04/15 08:21:56;;;;;;;11.40;9.20;;;7.30;99.90;;;;;;5079937;28;20638;-82
2023/04/15 08:24:25;;;;;;;11.53;8.87;;;7.30;99.90;;;;;;5098330;28;20195;-83
2023/04/15 08:26:51;;;;;;;12.40;8.77;;;7.30;99.90;;;;;;5099116;28;20174;-82
2023/04/15 08:29:16;;;;;;;12.37;8.93;;;7.30;99.90;;;;;;5079203;28;20171;-81
2023/04/15 08:31:42;;;;;;;12.67;9.70;;;7.30;99.90;;;;;;5078022;28;20196;-80
2023/04/15 08:34:08;;;;;;;12.97;9.83;;;7.30;99.90;;;;;;5079594;28;20186;-79
2023/04/15 08:36:34;;;;;;;12.07;9.53;;;7.30;99.90;;;;;;5097592;28;20183;-79
2023/04/15 08:39:03;;;;;;;13.90;10.97;;;7.30;99.90;;;;;;5079643;28;20720;-79
2023/04/15 08:41:38;;;;;;;11.70;9.17;;;7.30;99.90;;;;;;5098210;28;20518;-79
2023/04/15 08:44:04;;;;;;;12.10;9.20;;;7.30;99.90;;;;;;5079824;28;20562;-80
2023/04/15 08:46:31;;;;;;;12.37;9.43;;;7.30;99.90;;;;;;5097942;28;20190;-78
2023/04/15 08:48:57;;;;;;;11.90;9.20;;;7.30;99.90;;;;;;5079745;28;20191;-80
2023/04/15 08:51:24;;;;;;;11.80;8.93;;;7.30;99.90;;;;;;5095787;28;20172;-81
2023/04/15 08:53:50;;;;;;;11.93;9.47;;;7.40;99.90;;;;;;5078730;28;20207;-80
2023/04/15 08:56:17;;;;;;;10.37;8.40;;;7.30;99.90;;;;;;5096672;28;20195;-81
2023/04/15 08:58:43;;;;;;;10.47;8.27;;;7.30;99.90;;;;;;5078724;28;20244;-81
2023/04/15 09:01:11;;;;;;;11.53;8.30;;;7.20;99.90;;;;;;5096236;28;20180;-80
2023/04/15 09:03:38;;;;;;;11.90;8.93;;;7.10;99.90;;;;;;5078636;28;20210;-80
2023/04/15 09:06:05;;;;;;;9.73;7.77;;;7.30;99.90;;;;;;5096217;28;20267;-81
2023/04/15 09:08:31;;;;;;;10.37;8.07;;;7.30;99.90;;;;;;5080271;28;20203;-81
2023/04/15 09:10:56;;;;;;;10.10;7.87;;;7.30;99.90;;;;;;5079965;28;20171;-81
2023/04/15 09:13:22;;;;;;;9.83;7.70;;;7.30;99.90;;;;;;5078233;28;20207;-81
2023/04/15 09:15:48;;;;;;;12.83;10.80;;;7.30;99.90;;;;;;5096426;28;20205;-81
2023/04/15 09:18:27;;;;;;;11.20;8.30;;;7.30;99.90;;;;;;5096830;28;20210;-80
2023/04/15 09:20:53;;;;;;;11.00;7.77;;;7.30;99.90;;;;;;5096650;28;20164;-80
2023/04/15 09:23:19;;;;;;;10.57;7.77;;;7.40;99.90;;;;;;5096944;28;20227;-81
2023/04/15 09:25:45;;;;;;;9.27;7.30;;;7.30;99.90;;;;;;5078448;28;20654;-80
2023/04/15 09:28:10;;;;;;;10.07;8.10;;;7.40;99.90;;;;;;5078947;28;20195;-81
2023/04/15 09:30:36;;;;;;;10.03;6.90;;;7.40;99.90;;;;;;5079200;28;20173;-81
2023/04/15 09:33:06;;;;;;;8.70;6.60;;;7.40;99.90;;;;;;5095907;28;20176;-81
2023/04/15 09:35:33;;;;;;;9.07;6.87;;;7.40;99.90;;;;;;5095980;28;20164;-81
2023/04/15 09:38:06;;;;;;;8.83;7.57;;;7.40;99.90;;;;;;5093616;28;20258;-82
2023/04/15 09:40:34;;;;;;;9.03;6.93;;;7.40;99.90;;;;;;5093699;28;20172;-80
2023/04/15 09:43:00;;;;;;;8.20;6.67;;;7.50;99.90;;;;;;5075972;28;20254;-81
2023/04/15 09:45:27;;;;;;;8.93;6.50;;;7.50;99.90;;;;;;5093857;28;20172;-82
2023/04/15 09:47:52;;;;;;;9.10;6.87;;;7.50;99.90;;;;;;5074361;28;20198;-81
2023/04/15 09:50:19;;;;;;;7.90;6.33;;;7.40;99.90;;;;;;5095791;28;20184;-81
2023/04/15 09:52:45;;;;;;;7.73;6.17;;;7.40;99.90;;;;;;5083678;28;20260;-81
2023/04/15 09:55:12;;;;;;;8.50;6.37;;;7.50;99.90;;;;;;5113991;28;20527;-81
2023/04/15 09:57:43;;;;;;;8.77;7.10;;;7.50;99.90;;;;;;5114520;28;20252;-82
2023/04/15 10:00:10;;;;;;;8.90;6.10;;;7.40;99.90;;;;;;5097035;28;20176;-81
2023/04/15 10:02:37;;;;;;;8.50;6.27;;;7.40;99.90;;;;;;5116609;28;20167;-81
2023/04/15 10:05:03;;;;;;;8.03;6.23;;;7.50;99.90;;;;;;5096119;28;20176;-82
2023/04/15 10:07:28;;;;;;;7.77;6.10;;;7.50;99.90;;;;;;5115027;28;20206;-80
2023/04/15 10:09:55;;;;;;;11.03;9.67;;;7.60;99.90;;;;;;5115595;28;20175;-82
2023/04/15 10:12:21;;;;;;;7.93;6.20;;;7.50;99.90;;;;;;5096278;28;20187;-83
2023/04/15 10:14:55;;;;;;;7.60;5.20;;;7.60;99.90;;;;;;5114559;28;20210;-81
2023/04/15 10:17:22;;;;;;;6.97;5.27;;;7.60;99.90;;;;;;5114449;28;20196;-81
2023/04/15 10:19:48;;;;;;;6.50;5.03;;;7.60;99.90;;;;;;5114358;28;20179;-82
2023/04/15 10:22:14;;;;;;;7.30;5.60;;;7.60;99.90;;;;;;5096021;28;20201;-79
2023/04/15 10:24:41;;;;;;;7.87;5.57;;;7.60;99.90;;;;;;5095102;28;20199;-79
2023/04/15 10:27:08;;;;;;;8.00;5.63;;;8.20;99.90;;;;;;5113516;28;20196;-80
2023/04/15 10:29:34;;;;;;;8.57;5.30;;;8.40;99.90;;;;;;5097072;28;20181;-79
2023/04/15 10:32:01;;;;;;;6.10;4.90;;;9.10;99.90;;;;;;5093938;28;20168;-81
2023/04/15 10:34:29;;;;;;;6.40;5.47;;;8.80;99.90;;;;;;5092482;28;20180;-81
2023/04/15 10:37:00;;;;;;;6.63;5.23;;;8.40;99.90;;;;;;5093799;28;20300;-81
2023/04/15 10:39:40;;;;;;;6.10;4.60;;;8.20;99.90;;;;;;5110346;22;20232;-80
2023/04/15 10:42:14;;;;;;;6.70;5.07;;;8.00;99.90;;;;;;5092752;28;20168;-81
2023/04/15 10:44:42;;;;;;;7.87;6.03;;;7.90;99.90;;;;;;5092585;28;20196;-81
2023/04/15 10:47:14;;;;;;;6.77;5.40;;;7.70;99.90;;;;;;5092724;28;20182;-82
2023/04/15 10:49:47;;;;;;;6.37;5.23;;;7.60;99.90;;;;;;5112064;28;20189;-82
2023/04/15 10:52:15;;;;;;;7.03;5.27;;;7.60;99.90;;;;;;5114556;28;20628;-82
2023/04/15 10:54:40;;;;;;;7.10;5.10;;;7.60;99.90;;;;;;5112430;28;20191;-82
2023/04/15 10:57:12;;;;;;;7.67;5.57;;;7.60;99.90;;;;;;5113634;28;20224;-82
2023/04/15 10:59:59;;;;;;;6.57;5.07;;;7.60;99.90;;;;;;5116531;28;20202;-81
2023/04/15 11:02:46;;;;;;;6.43;4.80;;;7.60;99.90;;;;;;5116109;28;20650;-82
2023/04/15 11:05:12;;;;;;;6.80;5.13;;;7.70;99.90;;;;;;5116002;28;20191;-82
2023/04/15 11:07:51;;;;;;;6.80;5.77;;;7.70;99.90;;;;;;5116457;28;20170;-82
2023/04/15 11:10:17;;;;;;;7.40;5.33;;;7.70;99.90;;;;;;5118015;28;20167;-81
2023/04/15 11:12:44;;;;;;;6.73;5.37;;;7.70;99.90;;;;;;5116564;28;20195;-81
2023/04/15 11:15:34;;;;;;;7.23;5.20;;;7.70;99.90;;;;;;5117689;28;20165;-81
2023/04/15 11:18:09;;;;;;;6.30;5.13;;;7.70;99.90;;;;;;5116290;28;20244;-81
2023/04/15 11:20:36;;;;;;;6.00;4.83;;;7.70;99.90;;;;;;5117661;28;20231;-81
2023/04/15 11:23:01;;;;;;;6.00;5.17;;;7.70;99.90;;;;;;5116865;28;20200;-81
2023/04/15 11:25:29;;;;;;;6.73;5.07;;;7.80;99.90;;;;;;5117291;28;20179;-81
2023/04/15 11:27:55;;;;;;;6.47;5.33;;;7.70;99.90;;;;;;5116987;28;20244;-81
2023/04/15 11:30:22;;;;;;;6.73;5.20;;;7.70;99.90;;;;;;5117718;28;20645;-82
2023/04/15 11:32:52;;;;;;;7.57;5.40;;;7.70;99.90;;;;;;5116662;28;20217;-81
2023/04/15 11:35:18;;;;;;;6.67;5.07;;;7.70;99.90;;;;;;5117023;28;20184;-81
2023/04/15 11:37:48;;;;;;;6.10;4.67;;;7.70;99.90;;;;;;5116438;28;20191;-81
2023/04/15 11:40:16;;;;;;;6.90;5.17;;;7.70;99.90;;;;;;5116233;28;20233;-81
2023/04/15 11:42:42;;;;;;;5.73;4.47;;;7.70;99.90;;;;;;5117734;28;20256;-81
2023/04/15 11:45:13;;;;;;;6.80;5.10;;;7.80;99.90;;;;;;5116113;28;20191;-82
2023/04/15 11:47:40;;;;;;;6.37;4.90;;;7.80;99.90;;;;;;5116518;28;20247;-82
2023/04/15 11:50:20;;;;;;;5.77;4.43;;;7.80;99.90;;;;;;5114977;28;20176;-82
2023/04/15 11:52:56;;;;;;;5.97;4.40;;;7.80;99.90;;;;;;5116372;27;20532;-81
2023/04/15 11:55:23;;;;;;;7.03;4.77;;;7.80;99.90;;;;;;5115943;28;20255;-82
2023/04/15 11:58:05;;;;;;;5.93;4.40;;;7.80;99.90;;;;;;5116129;28;20202;-82
2023/04/15 12:00:31;;;;;;;5.30;4.27;;;7.80;99.90;;;;;;5116273;28;20159;-82
2023/04/15 12:03:17;;;;;;;5.57;4.40;;;7.90;99.90;;;;;;5116220;28;20196;-82
2023/04/15 12:06:07;;;;;;;5.37;4.37;;;7.90;99.90;;;;;;5116816;27;20180;-82
2023/04/15 12:08:52;;;;;;;4.47;3.77;;;8.00;99.90;;;;;;5108807;28;20197;-81
2023/04/15 12:11:34;;;;;;;4.30;3.53;;;8.00;99.90;;;;;;5113986;28;20237;-82
2023/04/15 12:14:12;;;;;;;4.77;3.93;;;8.00;99.90;;;;;;5114214;28;20185;-79
2023/04/15 12:16:47;;;;;;;4.17;3.70;;;8.10;99.90;;;;;;5110914;28;20176;-82
2023/04/15 12:19:15;;;;;;;4.80;3.63;;;8.00;99.90;;;;;;5112914;28;20204;-82
2023/04/15 12:21:44;;;;;;;5.93;4.00;;;8.00;99.90;;;;;;5113626;28;20175;-81
2023/04/15 12:24:11;;;;;;;4.40;3.53;;;8.00;99.90;;;;;;5112565;28;20208;-82
2023/04/15 12:26:47;;;;;;;4.80;3.90;;;8.10;99.90;;;;;;5112681;28;20194;-82
2023/04/15 12:29:15;;;;;;;4.37;3.17;;;8.00;99.90;;;;;;5112729;28;20279;-82
2023/04/15 12:31:52;;;;;;;90.07;51.27;;;8.00;99.90;;;;;;5114752;28;20258;-82
2023/04/15 12:34:28;;;;;;;3.90;2.83;;;8.00;99.90;;;;;;5114111;28;20183;-82
2023/04/15 12:36:55;;;;;;;3.90;2.30;;;8.10;99.90;;;;;;5115388;28;20172;-82
2023/04/15 12:39:23;;;;;;;22.90;14.57;;;8.10;99.90;;;;;;5114050;28;20212;-82
2023/04/15 12:41:48;;;;;;;16.43;10.93;;;8.10;99.90;;;;;;5115865;28;20196;-82
2023/04/15 12:44:14;;;;;;;3.47;2.53;;;8.20;99.90;;;;;;5114262;28;20239;-82
2023/04/15 12:46:40;;;;;;;10.13;6.37;;;8.10;99.90;;;;;;5115296;28;20232;-82
2023/04/15 12:49:06;;;;;;;4.43;2.90;;;8.20;99.90;;;;;;5114803;28;20234;-82
2023/04/15 12:51:31;;;;;;;3.07;2.67;;;8.10;99.90;;;;;;5113347;28;20173;-82
2023/04/15 12:53:57;;;;;;;6.17;4.60;;;8.10;99.90;;;;;;5114682;28;20174;-82